sensor_id;sensor_type;location;lat;lon;timestamp;pressure;altitude;pressure_sealevel;temperature;humidity
48968;BME280;46511;53.148;8.204;2023-01-16T00:01:48;99637.00;;;6.84;nan
48968;BME280;46511;53.148;8.204;2023-01-16T00:04:20;99632.94;;;6.79;nan
48968;BME280;46511;53.148;8.204;2023-01-16T00:06:52;99629.34;;;6.80;nan
48968;BME280;46511;53.148;8.204;2023-01-16T00:09:23;99618.25;;;6.89;nan
48968;BME280;46511;53.148;8.204;2023-01-16T00:11:54;99623.72;;;7.00;nan
48968;BME280;46511;53.148;8.204;2023-01-16T00:14:25;99621.47;;;6.94;nan
48968;BME280;46511;53.148;8.204;2023-01-16T00:17:00;99614.09;;;6.85;nan
48968;BME280;46511;53.148;8.204;2023-01-16T00:19:31;99615.00;;;6.70;nan
48968;BME280;46511;53.148;8.204;2023-01-16T00:22:02;99611.06;;;6.77;nan
48968;BME280;46511;53.148;8.204;2023-01-16T00:24:33;99613.28;;;6.54;nan
48968;BME280;46511;53.148;8.204;2023-01-16T00:27:05;99614.78;;;6.58;nan
48968;BME280;46511;53.148;8.204;2023-01-16T00:29:36;99612.34;;;6.55;nan
48968;BME280;46511;53.148;8.204;2023-01-16T00:32:07;99605.38;;;6.54;nan
48968;BME280;46511;53.148;8.204;2023-01-16T00:34:41;99608.00;;;6.54;nan
48968;BME280;46511;53.148;8.204;2023-01-16T00:37:12;99603.81;;;6.36;nan
48968;BME280;46511;53.148;8.204;2023-01-16T00:39:43;99593.47;;;6.47;nan
48968;BME280;46511;53.148;8.204;2023-01-16T00:42:14;99595.94;;;6.50;nan
48968;BME280;46511;53.148;8.204;2023-01-16T00:44:46;99595.31;;;6.31;nan
48968;BME280;46511;53.148;8.204;2023-01-16T00:47:17;99590.22;;;6.28;nan
48968;BME280;46511;53.148;8.204;2023-01-16T00:49:48;99583.00;;;6.16;nan
48968;BME280;46511;53.148;8.204;2023-01-16T00:52:19;99581.28;;;6.15;nan
48968;BME280;46511;53.148;8.204;2023-01-16T00:54:50;99580.31;;;6.32;nan
48968;BME280;46511;53.148;8.204;2023-01-16T00:57:22;99566.19;;;6.33;nan
48968;BME280;46511;53.148;8.204;2023-01-16T00:59:53;99569.91;;;6.44;nan
48968;BME280;46511;53.148;8.204;2023-01-16T01:02:24;99565.50;;;6.45;nan
48968;BME280;46511;53.148;8.204;2023-01-16T01:04:56;99552.97;;;6.48;nan
48968;BME280;46511;53.148;8.204;2023-01-16T01:07:27;99550.88;;;6.39;nan
48968;BME280;46511;53.148;8.204;2023-01-16T01:09:58;99550.31;;;6.48;nan
48968;BME280;46511;53.148;8.204;2023-01-16T01:12:29;99541.16;;;6.40;nan
48968;BME280;46511;53.148;8.204;2023-01-16T01:15:01;99533.84;;;6.45;nan
48968;BME280;46511;53.148;8.204;2023-01-16T01:17:32;99530.81;;;6.37;nan
48968;BME280;46511;53.148;8.204;2023-01-16T01:20:04;99524.50;;;6.39;nan
48968;BME280;46511;53.148;8.204;2023-01-16T01:22:35;99524.84;;;6.33;nan
48968;BME280;46511;53.148;8.204;2023-01-16T01:25:07;99519.41;;;6.50;nan
48968;BME280;46511;53.148;8.204;2023-01-16T01:27:38;99505.56;;;6.47;nan
48968;BME280;46511;53.148;8.204;2023-01-16T01:30:10;99506.41;;;6.47;nan
48968;BME280;46511;53.148;8.204;2023-01-16T01:32:41;99502.53;;;6.39;nan
48968;BME280;46511;53.148;8.204;2023-01-16T01:35:13;99498.69;;;6.58;nan
48968;BME280;46511;53.148;8.204;2023-01-16T01:37:44;99498.47;;;6.33;nan
48968;BME280;46511;53.148;8.204;2023-01-16T01:40:15;99484.00;;;6.54;nan
48968;BME280;46511;53.148;8.204;2023-01-16T01:42:47;99486.41;;;6.43;nan
48968;BME280;46511;53.148;8.204;2023-01-16T01:48:02;99474.59;;;6.65;nan
48968;BME280;46511;53.148;8.204;2023-01-16T01:50:47;99476.66;;;6.45;nan
48968;BME280;46511;53.148;8.204;2023-01-16T01:53:32;99461.97;;;6.55;nan
48968;BME280;46511;53.148;8.204;2023-01-16T01:56:18;99457.41;;;6.72;nan
48968;BME280;46511;53.148;8.204;2023-01-16T01:58:54;99452.41;;;6.53;nan
48968;BME280;46511;53.148;8.204;2023-01-16T02:01:29;99443.00;;;6.63;nan
48968;BME280;46511;53.148;8.204;2023-01-16T02:03:58;99439.44;;;6.64;nan
48968;BME280;46511;53.148;8.204;2023-01-16T02:06:46;99434.53;;;6.58;nan
48968;BME280;46511;53.148;8.204;2023-01-16T02:09:20;99438.59;;;6.64;nan
48968;BME280;46511;53.148;8.204;2023-01-16T02:11:55;99428.97;;;6.48;nan
48968;BME280;46511;53.148;8.204;2023-01-16T02:14:28;99418.97;;;6.39;nan
48968;BME280;46511;53.148;8.204;2023-01-16T02:17:08;99424.25;;;6.39;nan
48968;BME280;46511;53.148;8.204;2023-01-16T02:31:32;99383.38;;;6.18;nan
48968;BME280;46511;53.148;8.204;2023-01-16T02:34:16;99385.16;;;6.32;nan
48968;BME280;46511;53.148;8.204;2023-01-16T02:40:01;99385.06;;;6.47;nan
48968;BME280;46511;53.148;8.204;2023-01-16T02:42:44;99378.53;;;6.53;nan
48968;BME280;46511;53.148;8.204;2023-01-16T02:48:16;99369.25;;;6.47;nan
48968;BME280;46511;53.148;8.204;2023-01-16T02:51:03;99357.16;;;6.43;nan
48968;BME280;46511;53.148;8.204;2023-01-16T02:53:43;99354.63;;;6.42;nan
48968;BME280;46511;53.148;8.204;2023-01-16T02:56:22;99342.28;;;6.56;nan
48968;BME280;46511;53.148;8.204;2023-01-16T02:58:58;99342.19;;;6.58;nan
48968;BME280;46511;53.148;8.204;2023-01-16T03:01:32;99345.34;;;6.36;nan
48968;BME280;46511;53.148;8.204;2023-01-16T03:04:34;99326.09;;;6.34;nan
48968;BME280;46511;53.148;8.204;2023-01-16T03:12:39;99312.00;;;6.07;nan
48968;BME280;46511;53.148;8.204;2023-01-16T03:15:26;99309.16;;;5.95;nan
48968;BME280;46511;53.148;8.204;2023-01-16T03:21:04;99299.41;;;5.97;nan
48968;BME280;46511;53.148;8.204;2023-01-16T03:23:45;99297.13;;;5.91;nan
48968;BME280;46511;53.148;8.204;2023-01-16T03:26:34;99294.50;;;5.91;nan
48968;BME280;46511;53.148;8.204;2023-01-16T03:29:12;99294.91;;;5.84;nan
48968;BME280;46511;53.148;8.204;2023-01-16T03:31:55;99293.34;;;5.95;nan
48968;BME280;46511;53.148;8.204;2023-01-16T03:34:39;99293.56;;;6.07;nan
48968;BME280;46511;53.148;8.204;2023-01-16T03:37:12;99291.50;;;5.97;nan
48968;BME280;46511;53.148;8.204;2023-01-16T03:39:51;99278.84;;;6.03;nan
48968;BME280;46511;53.148;8.204;2023-01-16T03:42:37;99277.25;;;6.14;nan
48968;BME280;46511;53.148;8.204;2023-01-16T03:45:16;99274.16;;;5.93;nan
48968;BME280;46511;53.148;8.204;2023-01-16T03:48:13;99266.78;;;6.13;nan
48968;BME280;46511;53.148;8.204;2023-01-16T03:50:53;99273.22;;;6.09;nan
48968;BME280;46511;53.148;8.204;2023-01-16T03:53:32;99259.84;;;5.97;nan
48968;BME280;46511;53.148;8.204;2023-01-16T03:58:51;99257.28;;;5.96;nan
48968;BME280;46511;53.148;8.204;2023-01-16T04:01:45;99247.22;;;5.88;nan
48968;BME280;46511;53.148;8.204;2023-01-16T04:04:25;99241.00;;;6.04;nan
48968;BME280;46511;53.148;8.204;2023-01-16T04:07:05;99244.31;;;6.07;nan
48968;BME280;46511;53.148;8.204;2023-01-16T04:12:15;99250.88;;;6.14;nan
48968;BME280;46511;53.148;8.204;2023-01-16T04:14:53;99242.38;;;6.38;nan
48968;BME280;46511;53.148;8.204;2023-01-16T04:17:28;99235.50;;;6.35;nan
48968;BME280;46511;53.148;8.204;2023-01-16T04:20:00;99230.31;;;6.34;nan
48968;BME280;46511;53.148;8.204;2023-01-16T04:22:32;99229.34;;;6.35;nan
48968;BME280;46511;53.148;8.204;2023-01-16T04:25:05;99219.69;;;6.35;nan
48968;BME280;46511;53.148;8.204;2023-01-16T04:27:38;99224.38;;;6.30;nan
48968;BME280;46511;53.148;8.204;2023-01-16T04:30:10;99214.56;;;6.46;nan
48968;BME280;46511;53.148;8.204;2023-01-16T04:32:42;99205.38;;;6.25;nan
48968;BME280;46511;53.148;8.204;2023-01-16T04:35:13;99211.00;;;6.33;nan
48968;BME280;46511;53.148;8.204;2023-01-16T04:37:44;99202.84;;;6.50;nan
48968;BME280;46511;53.148;8.204;2023-01-16T04:40:16;99192.94;;;6.27;nan
48968;BME280;46511;53.148;8.204;2023-01-16T04:42:47;99184.72;;;6.32;nan
48968;BME280;46511;53.148;8.204;2023-01-16T04:45:19;99176.91;;;6.30;nan
48968;BME280;46511;53.148;8.204;2023-01-16T04:47:50;99167.22;;;6.30;nan
48968;BME280;46511;53.148;8.204;2023-01-16T04:50:22;99170.94;;;6.41;nan
48968;BME280;46511;53.148;8.204;2023-01-16T04:52:54;99174.13;;;6.19;nan
48968;BME280;46511;53.148;8.204;2023-01-16T04:55:25;99166.63;;;6.40;nan
48968;BME280;46511;53.148;8.204;2023-01-16T04:57:56;99168.41;;;6.39;nan
48968;BME280;46511;53.148;8.204;2023-01-16T05:00:27;99167.72;;;6.23;nan
48968;BME280;46511;53.148;8.204;2023-01-16T05:02:59;99168.44;;;6.25;nan
48968;BME280;46511;53.148;8.204;2023-01-16T05:05:30;99163.25;;;6.38;nan
48968;BME280;46511;53.148;8.204;2023-01-16T05:08:01;99159.91;;;6.48;nan
48968;BME280;46511;53.148;8.204;2023-01-16T05:10:47;99160.28;;;6.42;nan
48968;BME280;46511;53.148;8.204;2023-01-16T05:13:19;99160.34;;;6.55;nan
48968;BME280;46511;53.148;8.204;2023-01-16T05:15:51;99150.28;;;6.47;nan
48968;BME280;46511;53.148;8.204;2023-01-16T05:18:22;99146.75;;;6.34;nan
48968;BME280;46511;53.148;8.204;2023-01-16T05:20:54;99143.38;;;6.32;nan
48968;BME280;46511;53.148;8.204;2023-01-16T05:23:26;99136.31;;;6.06;nan
48968;BME280;46511;53.148;8.204;2023-01-16T05:25:59;99142.50;;;6.19;nan
48968;BME280;46511;53.148;8.204;2023-01-16T05:28:30;99144.56;;;6.14;nan
48968;BME280;46511;53.148;8.204;2023-01-16T05:31:02;99136.06;;;6.23;nan
48968;BME280;46511;53.148;8.204;2023-01-16T05:33:34;99135.38;;;6.34;nan
48968;BME280;46511;53.148;8.204;2023-01-16T05:36:05;99134.03;;;6.14;nan
48968;BME280;46511;53.148;8.204;2023-01-16T05:38:37;99122.38;;;6.04;nan
48968;BME280;46511;53.148;8.204;2023-01-16T05:41:08;99135.81;;;5.58;nan
48968;BME280;46511;53.148;8.204;2023-01-16T05:43:39;99121.69;;;5.73;nan
48968;BME280;46511;53.148;8.204;2023-01-16T05:46:10;99118.81;;;6.05;nan
48968;BME280;46511;53.148;8.204;2023-01-16T05:48:42;99110.25;;;5.87;nan
48968;BME280;46511;53.148;8.204;2023-01-16T05:51:13;99110.53;;;5.96;nan
48968;BME280;46511;53.148;8.204;2023-01-16T05:53:48;99100.00;;;5.96;nan
48968;BME280;46511;53.148;8.204;2023-01-16T05:56:21;99103.41;;;5.98;nan
48968;BME280;46511;53.148;8.204;2023-01-16T05:58:53;99106.47;;;5.64;nan
48968;BME280;46511;53.148;8.204;2023-01-16T06:01:24;99093.59;;;5.59;nan
48968;BME280;46511;53.148;8.204;2023-01-16T06:03:55;99088.84;;;5.64;nan
48968;BME280;46511;53.148;8.204;2023-01-16T06:06:26;99080.94;;;5.79;nan
48968;BME280;46511;53.148;8.204;2023-01-16T06:08:58;99076.25;;;5.69;nan
48968;BME280;46511;53.148;8.204;2023-01-16T06:11:29;99076.38;;;5.54;nan
48968;BME280;46511;53.148;8.204;2023-01-16T06:14:00;99070.31;;;5.66;nan
48968;BME280;46511;53.148;8.204;2023-01-16T06:16:34;99073.78;;;5.81;nan
48968;BME280;46511;53.148;8.204;2023-01-16T06:19:06;99066.69;;;5.95;nan
48968;BME280;46511;53.148;8.204;2023-01-16T06:21:37;99064.00;;;5.68;nan
48968;BME280;46511;53.148;8.204;2023-01-16T06:24:08;99060.88;;;5.76;nan
48968;BME280;46511;53.148;8.204;2023-01-16T06:26:39;99048.00;;;5.71;nan
48968;BME280;46511;53.148;8.204;2023-01-16T06:29:11;99045.06;;;5.90;nan
48968;BME280;46511;53.148;8.204;2023-01-16T06:31:42;99045.31;;;5.86;nan
48968;BME280;46511;53.148;8.204;2023-01-16T06:34:13;99042.56;;;5.87;nan
48968;BME280;46511;53.148;8.204;2023-01-16T06:36:45;99036.75;;;5.96;nan
48968;BME280;46511;53.148;8.204;2023-01-16T06:39:18;99023.56;;;5.96;nan
48968;BME280;46511;53.148;8.204;2023-01-16T06:41:49;99022.13;;;5.78;nan
48968;BME280;46511;53.148;8.204;2023-01-16T06:44:21;99016.22;;;5.87;nan
48968;BME280;46511;53.148;8.204;2023-01-16T06:46:52;99016.84;;;5.78;nan
48968;BME280;46511;53.148;8.204;2023-01-16T06:49:23;99020.63;;;5.74;nan
48968;BME280;46511;53.148;8.204;2023-01-16T06:51:54;99022.25;;;5.62;nan
48968;BME280;46511;53.148;8.204;2023-01-16T06:54:26;99016.44;;;5.84;nan
48968;BME280;46511;53.148;8.204;2023-01-16T06:56:57;99019.78;;;5.73;nan
48968;BME280;46511;53.148;8.204;2023-01-16T06:59:29;99014.97;;;5.80;nan
48968;BME280;46511;53.148;8.204;2023-01-16T07:02:00;99016.31;;;6.00;nan
48968;BME280;46511;53.148;8.204;2023-01-16T07:04:31;99014.38;;;5.89;nan
48968;BME280;46511;53.148;8.204;2023-01-16T07:07:02;99014.25;;;6.18;nan
48968;BME280;46511;53.148;8.204;2023-01-16T07:09:34;99012.69;;;5.88;nan
48968;BME280;46511;53.148;8.204;2023-01-16T07:12:05;99012.84;;;5.99;nan
48968;BME280;46511;53.148;8.204;2023-01-16T07:14:36;99009.13;;;5.75;nan
48968;BME280;46511;53.148;8.204;2023-01-16T07:17:26;99004.72;;;5.76;nan
48968;BME280;46511;53.148;8.204;2023-01-16T07:20:15;98996.88;;;5.88;nan
48968;BME280;46511;53.148;8.204;2023-01-16T07:23:16;98998.59;;;6.02;nan
48968;BME280;46511;53.148;8.204;2023-01-16T07:25:52;98992.59;;;6.00;nan
48968;BME280;46511;53.148;8.204;2023-01-16T07:28:24;98988.91;;;5.76;nan
48968;BME280;46511;53.148;8.204;2023-01-16T07:30:56;98987.19;;;5.62;nan
48968;BME280;46511;53.148;8.204;2023-01-16T07:33:29;98981.47;;;5.55;nan
48968;BME280;46511;53.148;8.204;2023-01-16T07:36:00;98977.81;;;5.16;nan
48968;BME280;46511;53.148;8.204;2023-01-16T07:38:31;98974.47;;;5.41;nan
48968;BME280;46511;53.148;8.204;2023-01-16T07:41:03;98960.38;;;5.28;nan
48968;BME280;46511;53.148;8.204;2023-01-16T07:43:34;98957.47;;;5.33;nan
48968;BME280;46511;53.148;8.204;2023-01-16T07:46:05;98956.41;;;5.35;nan
48968;BME280;46511;53.148;8.204;2023-01-16T07:48:37;98949.16;;;5.12;nan
48968;BME280;46511;53.148;8.204;2023-01-16T07:51:08;98944.72;;;5.12;nan
48968;BME280;46511;53.148;8.204;2023-01-16T07:53:39;98941.78;;;5.17;nan
48968;BME280;46511;53.148;8.204;2023-01-16T07:56:11;98941.66;;;5.33;nan
48968;BME280;46511;53.148;8.204;2023-01-16T07:58:42;98939.72;;;5.22;nan
48968;BME280;46511;53.148;8.204;2023-01-16T08:01:14;98933.16;;;5.15;nan
48968;BME280;46511;53.148;8.204;2023-01-16T08:03:45;98924.91;;;5.34;nan
48968;BME280;46511;53.148;8.204;2023-01-16T08:06:16;98917.75;;;5.09;nan
48968;BME280;46511;53.148;8.204;2023-01-16T08:08:47;98905.06;;;5.42;nan
48968;BME280;46511;53.148;8.204;2023-01-16T08:11:19;98899.28;;;5.23;nan
48968;BME280;46511;53.148;8.204;2023-01-16T08:14:06;98915.31;;;5.06;nan
48968;BME280;46511;53.148;8.204;2023-01-16T08:16:38;98896.34;;;5.28;nan
48968;BME280;46511;53.148;8.204;2023-01-16T08:19:09;98889.13;;;5.31;nan
48968;BME280;46511;53.148;8.204;2023-01-16T08:21:40;98899.31;;;5.36;nan
48968;BME280;46511;53.148;8.204;2023-01-16T08:24:12;98881.00;;;5.34;nan
48968;BME280;46511;53.148;8.204;2023-01-16T08:26:45;98872.38;;;5.32;nan
48968;BME280;46511;53.148;8.204;2023-01-16T08:29:17;98871.56;;;5.18;nan
48968;BME280;46511;53.148;8.204;2023-01-16T08:31:48;98867.09;;;5.32;nan
48968;BME280;46511;53.148;8.204;2023-01-16T08:34:20;98854.75;;;5.60;nan
48968;BME280;46511;53.148;8.204;2023-01-16T08:36:51;98854.50;;;5.50;nan
48968;BME280;46511;53.148;8.204;2023-01-16T08:39:22;98850.09;;;5.63;nan
48968;BME280;46511;53.148;8.204;2023-01-16T08:41:56;98843.16;;;5.75;nan
48968;BME280;46511;53.148;8.204;2023-01-16T08:44:45;98836.63;;;5.81;nan
48968;BME280;46511;53.148;8.204;2023-01-16T08:47:35;98829.69;;;5.80;nan
48968;BME280;46511;53.148;8.204;2023-01-16T08:50:26;98833.47;;;5.76;nan
48968;BME280;46511;53.148;8.204;2023-01-16T08:53:16;98820.00;;;5.93;nan
48968;BME280;46511;53.148;8.204;2023-01-16T08:55:48;98827.88;;;5.80;nan
48968;BME280;46511;53.148;8.204;2023-01-16T08:58:20;98822.34;;;5.97;nan
48968;BME280;46511;53.148;8.204;2023-01-16T09:00:52;98817.88;;;5.85;nan
48968;BME280;46511;53.148;8.204;2023-01-16T09:03:23;98800.59;;;5.94;nan
48968;BME280;46511;53.148;8.204;2023-01-16T09:05:54;98800.38;;;6.35;nan
48968;BME280;46511;53.148;8.204;2023-01-16T09:08:26;98797.53;;;6.25;nan
48968;BME280;46511;53.148;8.204;2023-01-16T09:10:57;98789.16;;;6.32;nan
48968;BME280;46511;53.148;8.204;2023-01-16T09:13:47;98791.84;;;6.19;nan
48968;BME280;46511;53.148;8.204;2023-01-16T09:16:22;98790.47;;;6.13;nan
48968;BME280;46511;53.148;8.204;2023-01-16T09:18:54;98780.06;;;6.48;nan
48968;BME280;46511;53.148;8.204;2023-01-16T09:21:25;98782.63;;;6.37;nan
48968;BME280;46511;53.148;8.204;2023-01-16T09:23:57;98780.47;;;6.18;nan
48968;BME280;46511;53.148;8.204;2023-01-16T09:26:28;98764.66;;;6.42;nan
48968;BME280;46511;53.148;8.204;2023-01-16T09:28:59;98757.94;;;6.62;nan
48968;BME280;46511;53.148;8.204;2023-01-16T09:31:31;98755.53;;;6.59;nan
48968;BME280;46511;53.148;8.204;2023-01-16T09:34:02;98747.41;;;6.86;nan
48968;BME280;46511;53.148;8.204;2023-01-16T09:36:33;98738.34;;;6.53;nan
48968;BME280;46511;53.148;8.204;2023-01-16T09:39:04;98735.69;;;6.66;nan
48968;BME280;46511;53.148;8.204;2023-01-16T09:41:39;98734.13;;;6.99;nan
48968;BME280;46511;53.148;8.204;2023-01-16T09:44:39;98723.41;;;7.24;nan
48968;BME280;46511;53.148;8.204;2023-01-16T09:47:12;98719.66;;;7.04;nan
48968;BME280;46511;53.148;8.204;2023-01-16T09:49:45;98703.94;;;6.79;nan
48968;BME280;46511;53.148;8.204;2023-01-16T09:52:20;98700.44;;;7.02;nan
48968;BME280;46511;53.148;8.204;2023-01-16T09:55:25;98695.78;;;7.06;nan
48968;BME280;46511;53.148;8.204;2023-01-16T09:58:39;98684.19;;;7.31;nan
48968;BME280;46511;53.148;8.204;2023-01-16T10:01:16;98681.47;;;6.97;nan
48968;BME280;46511;53.148;8.204;2023-01-16T10:03:54;98675.38;;;7.19;nan
48968;BME280;46511;53.148;8.204;2023-01-16T10:06:37;98671.03;;;6.96;nan
48968;BME280;46511;53.148;8.204;2023-01-16T10:09:38;98657.03;;;7.18;nan
48968;BME280;46511;53.148;8.204;2023-01-16T10:12:32;98648.81;;;6.98;nan
48968;BME280;46511;53.148;8.204;2023-01-16T10:15:14;98644.78;;;7.16;nan
48968;BME280;46511;53.148;8.204;2023-01-16T10:20:38;98633.06;;;7.32;nan
48968;BME280;46511;53.148;8.204;2023-01-16T10:26:29;98613.53;;;6.88;nan
48968;BME280;46511;53.148;8.204;2023-01-16T10:37:53;98592.16;;;6.91;nan
48968;BME280;46511;53.148;8.204;2023-01-16T10:40:29;98579.47;;;6.96;nan
48968;BME280;46511;53.148;8.204;2023-01-16T10:43:06;98576.25;;;7.04;nan
48968;BME280;46511;53.148;8.204;2023-01-16T10:46:10;98561.50;;;7.01;nan
48968;BME280;46511;53.148;8.204;2023-01-16T10:49:06;98561.25;;;7.04;nan
48968;BME280;46511;53.148;8.204;2023-01-16T10:51:58;98545.88;;;6.98;nan
48968;BME280;46511;53.148;8.204;2023-01-16T10:54:32;98541.22;;;7.02;nan
48968;BME280;46511;53.148;8.204;2023-01-16T10:57:14;98535.31;;;6.87;nan
48968;BME280;46511;53.148;8.204;2023-01-16T10:59:49;98520.44;;;6.75;nan
48968;BME280;46511;53.148;8.204;2023-01-16T11:02:33;98522.38;;;6.73;nan
48968;BME280;46511;53.148;8.204;2023-01-16T11:08:04;98516.03;;;6.40;nan
48968;BME280;46511;53.148;8.204;2023-01-16T11:10:46;98503.97;;;6.49;nan
48968;BME280;46511;53.148;8.204;2023-01-16T11:13:22;98503.97;;;6.14;nan
48968;BME280;46511;53.148;8.204;2023-01-16T11:16:18;98503.94;;;6.03;nan
48968;BME280;46511;53.148;8.204;2023-01-16T11:19:15;98483.72;;;5.79;nan
48968;BME280;46511;53.148;8.204;2023-01-16T11:21:50;98468.16;;;6.11;nan
48968;BME280;46511;53.148;8.204;2023-01-16T11:24:29;98468.53;;;6.18;nan
48968;BME280;46511;53.148;8.204;2023-01-16T11:27:05;98466.03;;;6.27;nan
48968;BME280;46511;53.148;8.204;2023-01-16T11:29:44;98444.84;;;5.94;nan
48968;BME280;46511;53.148;8.204;2023-01-16T11:32:15;98446.75;;;6.27;nan
48968;BME280;46511;53.148;8.204;2023-01-16T11:34:55;98427.69;;;6.35;nan
48968;BME280;46511;53.148;8.204;2023-01-16T11:37:28;98422.06;;;6.17;nan
48968;BME280;46511;53.148;8.204;2023-01-16T11:40:01;98416.06;;;6.26;nan
48968;BME280;46511;53.148;8.204;2023-01-16T11:42:35;98423.50;;;6.32;nan
48968;BME280;46511;53.148;8.204;2023-01-16T11:45:25;98393.53;;;6.44;nan
48968;BME280;46511;53.148;8.204;2023-01-16T11:48:19;98388.38;;;6.09;nan
48968;BME280;46511;53.148;8.204;2023-01-16T11:50:56;98385.88;;;6.30;nan
48968;BME280;46511;53.148;8.204;2023-01-16T11:53:30;98375.81;;;6.46;nan
48968;BME280;46511;53.148;8.204;2023-01-16T11:56:14;98374.03;;;6.36;nan
48968;BME280;46511;53.148;8.204;2023-01-16T11:59:15;98360.31;;;6.53;nan
48968;BME280;46511;53.148;8.204;2023-01-16T12:13:50;98328.28;;;5.79;nan
48968;BME280;46511;53.148;8.204;2023-01-16T12:22:50;98297.41;;;6.04;nan
48968;BME280;46511;53.148;8.204;2023-01-16T12:29:28;98286.88;;;5.92;nan
48968;BME280;46511;53.148;8.204;2023-01-16T12:34:28;98260.66;;;5.91;nan
48968;BME280;46511;53.148;8.204;2023-01-16T12:40:25;98257.19;;;5.90;nan
48968;BME280;46511;53.148;8.204;2023-01-16T12:54:33;98217.88;;;6.21;nan
48968;BME280;46511;53.148;8.204;2023-01-16T13:00:30;98205.38;;;6.23;nan
48968;BME280;46511;53.148;8.204;2023-01-16T13:06:15;98192.72;;;6.17;nan
48968;BME280;46511;53.148;8.204;2023-01-16T13:08:52;98183.13;;;6.27;nan
48968;BME280;46511;53.148;8.204;2023-01-16T13:11:38;98174.91;;;6.41;nan
48968;BME280;46511;53.148;8.204;2023-01-16T13:14:35;98170.91;;;6.58;nan
48968;BME280;46511;53.148;8.204;2023-01-16T13:17:09;98162.03;;;6.27;nan
48968;BME280;46511;53.148;8.204;2023-01-16T13:19:47;98159.22;;;6.40;nan
48968;BME280;46511;53.148;8.204;2023-01-16T13:22:23;98151.19;;;6.41;nan
48968;BME280;46511;53.148;8.204;2023-01-16T13:25:01;98152.03;;;6.63;nan
48968;BME280;46511;53.148;8.204;2023-01-16T13:27:43;98136.19;;;6.74;nan
48968;BME280;46511;53.148;8.204;2023-01-16T13:30:18;98131.69;;;6.65;nan
48968;BME280;46511;53.148;8.204;2023-01-16T13:44:07;98130.84;;;6.85;nan
48968;BME280;46511;53.148;8.204;2023-01-16T13:47:08;98130.78;;;6.54;nan
48968;BME280;46511;53.148;8.204;2023-01-16T13:49:44;98130.69;;;6.45;nan
48968;BME280;46511;53.148;8.204;2023-01-16T13:52:26;98131.75;;;6.42;nan
48968;BME280;46511;53.148;8.204;2023-01-16T13:55:00;98127.53;;;6.19;nan
48968;BME280;46511;53.148;8.204;2023-01-16T13:57:37;98115.94;;;6.10;nan
48968;BME280;46511;53.148;8.204;2023-01-16T14:00:12;98120.13;;;6.01;nan
48968;BME280;46511;53.148;8.204;2023-01-16T14:03:34;98122.69;;;5.92;nan
48968;BME280;46511;53.148;8.204;2023-01-16T14:06:37;98110.06;;;5.84;nan
48968;BME280;46511;53.148;8.204;2023-01-16T14:14:51;98090.22;;;5.80;nan
48968;BME280;46511;53.148;8.204;2023-01-16T14:26:04;98073.72;;;5.78;nan
48968;BME280;46511;53.148;8.204;2023-01-16T14:28:37;98069.38;;;5.88;nan
48968;BME280;46511;53.148;8.204;2023-01-16T14:31:18;98068.50;;;6.10;nan
48968;BME280;46511;53.148;8.204;2023-01-16T14:33:53;98066.72;;;5.99;nan
48968;BME280;46511;53.148;8.204;2023-01-16T14:36:28;98066.56;;;6.12;nan
48968;BME280;46511;53.148;8.204;2023-01-16T14:38:59;98055.94;;;6.03;nan
48968;BME280;46511;53.148;8.204;2023-01-16T14:41:31;98044.84;;;6.20;nan
48968;BME280;46511;53.148;8.204;2023-01-16T14:44:22;98036.13;;;6.40;nan
48968;BME280;46511;53.148;8.204;2023-01-16T14:50:09;98036.53;;;6.24;nan
48968;BME280;46511;53.148;8.204;2023-01-16T14:53:04;98036.81;;;6.21;nan
48968;BME280;46511;53.148;8.204;2023-01-16T14:58:54;98029.94;;;6.30;nan
48968;BME280;46511;53.148;8.204;2023-01-16T15:01:43;98016.88;;;6.08;nan
48968;BME280;46511;53.148;8.204;2023-01-16T15:04:44;98005.00;;;6.55;nan
48968;BME280;46511;53.148;8.204;2023-01-16T15:07:19;98006.75;;;6.45;nan
48968;BME280;46511;53.148;8.204;2023-01-16T15:10:02;98011.75;;;6.27;nan
48968;BME280;46511;53.148;8.204;2023-01-16T15:12:39;98002.09;;;6.37;nan
48968;BME280;46511;53.148;8.204;2023-01-16T15:15:19;98005.38;;;6.29;nan
48968;BME280;46511;53.148;8.204;2023-01-16T15:17:58;97996.16;;;6.24;nan
48968;BME280;46511;53.148;8.204;2023-01-16T15:20:49;97990.19;;;6.22;nan
48968;BME280;46511;53.148;8.204;2023-01-16T15:23:39;97980.34;;;6.03;nan
48968;BME280;46511;53.148;8.204;2023-01-16T15:29:11;97981.47;;;6.21;nan
48968;BME280;46511;53.148;8.204;2023-01-16T15:31:58;97979.44;;;6.14;nan
48968;BME280;46511;53.148;8.204;2023-01-16T15:34:32;97976.25;;;6.31;nan
48968;BME280;46511;53.148;8.204;2023-01-16T15:37:05;97974.19;;;6.14;nan
48968;BME280;46511;53.148;8.204;2023-01-16T15:39:50;97973.28;;;6.04;nan
48968;BME280;46511;53.148;8.204;2023-01-16T15:42:23;97969.03;;;6.33;nan
48968;BME280;46511;53.148;8.204;2023-01-16T15:45:20;97964.59;;;6.34;nan
48968;BME280;46511;53.148;8.204;2023-01-16T15:53:30;97955.56;;;6.26;nan
48968;BME280;46511;53.148;8.204;2023-01-16T15:56:06;97950.84;;;6.30;nan
48968;BME280;46511;53.148;8.204;2023-01-16T15:58:46;97964.22;;;5.85;nan
48968;BME280;46511;53.148;8.204;2023-01-16T16:01:26;97952.81;;;5.96;nan
48968;BME280;46511;53.148;8.204;2023-01-16T16:03:59;97954.97;;;6.02;nan
48968;BME280;46511;53.148;8.204;2023-01-16T16:06:33;97949.34;;;5.95;nan
48968;BME280;46511;53.148;8.204;2023-01-16T16:09:18;97948.41;;;5.85;nan
48968;BME280;46511;53.148;8.204;2023-01-16T16:11:53;97948.09;;;6.11;nan
48968;BME280;46511;53.148;8.204;2023-01-16T16:17:26;97937.16;;;5.94;nan
48968;BME280;46511;53.148;8.204;2023-01-16T16:20:34;97928.47;;;6.04;nan
48968;BME280;46511;53.148;8.204;2023-01-16T16:23:23;97929.94;;;5.96;nan
48968;BME280;46511;53.148;8.204;2023-01-16T16:28:36;97928.34;;;5.73;nan
48968;BME280;46511;53.148;8.204;2023-01-16T16:31:13;97921.75;;;6.11;nan
48968;BME280;46511;53.148;8.204;2023-01-16T16:36:38;97911.41;;;5.98;nan
48968;BME280;46511;53.148;8.204;2023-01-16T16:39:25;97909.97;;;5.94;nan
48968;BME280;46511;53.148;8.204;2023-01-16T16:41:58;97906.31;;;5.74;nan
48968;BME280;46511;53.148;8.204;2023-01-16T16:47:38;97889.56;;;5.75;nan
48968;BME280;46511;53.148;8.204;2023-01-16T16:52:51;97895.25;;;5.91;nan
48968;BME280;46511;53.148;8.204;2023-01-16T16:55:42;97890.00;;;5.91;nan
48968;BME280;46511;53.148;8.204;2023-01-16T16:58:19;97882.19;;;6.11;nan